createdAt,value
2018-03-27T00:02:26.987Z,5.75
2018-03-27T00:04:54.615Z,5.64
2018-03-27T00:07:22.179Z,5.63
2018-03-27T00:09:49.721Z,5.70
2018-03-27T00:12:17.363Z,5.68
2018-03-27T00:14:44.899Z,5.73
2018-03-27T00:17:12.465Z,5.69
2018-03-27T00:19:40.005Z,5.60
2018-03-27T00:22:07.567Z,5.63
2018-03-27T00:24:41.833Z,5.73
2018-03-27T00:27:09.118Z,5.73
2018-03-27T00:29:48.319Z,5.65
2018-03-27T00:32:27.717Z,5.69
2018-03-27T00:35:06.953Z,5.62
2018-03-27T00:37:46.301Z,5.59
2018-03-27T00:40:25.592Z,5.59
2018-03-27T00:42:54.137Z,5.58
2018-03-27T00:45:21.716Z,5.51
2018-03-27T00:47:49.337Z,5.44
2018-03-27T00:50:16.896Z,5.30
2018-03-27T00:52:44.416Z,5.41
2018-03-27T00:55:11.993Z,5.47
2018-03-27T00:57:39.515Z,5.48
2018-03-27T01:00:07.077Z,5.52
2018-03-27T01:02:34.603Z,5.49
2018-03-27T01:05:07.808Z,5.49
2018-03-27T01:07:35.327Z,5.37
2018-03-27T01:10:02.884Z,5.36
2018-03-27T01:12:30.421Z,5.32
2018-03-27T01:14:58.118Z,5.32
2018-03-27T01:17:25.653Z,5.13
2018-03-27T01:19:53.225Z,5.22
2018-03-27T01:22:20.766Z,5.22
2018-03-27T01:24:48.332Z,5.30
2018-03-27T01:27:15.848Z,5.20
2018-03-27T01:29:43.427Z,5.21
2018-03-27T01:32:11.503Z,5.24
2018-03-27T01:34:39.082Z,5.18
2018-03-27T01:37:06.612Z,5.15
2018-03-27T01:39:34.223Z,5.11
2018-03-27T01:42:01.743Z,4.96
2018-03-27T01:44:29.298Z,5.03
2018-03-27T01:46:56.819Z,5.00
2018-03-27T01:49:24.364Z,5.07
2018-03-27T01:51:51.904Z,4.98
2018-03-27T01:54:19.470Z,4.94
2018-03-27T01:56:46.984Z,4.68
2018-03-27T01:59:14.595Z,4.73
2018-03-27T02:01:42.152Z,4.77
2018-03-27T02:04:09.709Z,4.80
2018-03-27T02:06:37.228Z,4.85
2018-03-27T02:09:04.806Z,4.84
2018-03-27T02:11:37.852Z,4.79
2018-03-27T02:14:10.896Z,4.83
2018-03-27T02:16:44.032Z,4.75
2018-03-27T02:19:17.428Z,4.69
2018-03-27T02:21:44.395Z,4.61
2018-03-27T02:24:12.368Z,4.69
2018-03-27T02:26:39.879Z,4.76
2018-03-27T02:29:07.452Z,4.63
2018-03-27T02:31:34.987Z,4.80
2018-03-27T02:34:02.585Z,4.72
2018-03-27T02:36:30.103Z,4.71
2018-03-27T02:38:57.639Z,4.70
2018-03-27T02:41:25.195Z,4.76
2018-03-27T02:43:52.737Z,4.74
2018-03-27T02:46:20.301Z,4.72
2018-03-27T02:48:47.903Z,4.68
2018-03-27T02:51:15.557Z,4.74
2018-03-27T02:53:43.072Z,4.82
2018-03-27T02:56:10.625Z,4.49
2018-03-27T02:58:38.156Z,4.59
2018-03-27T03:01:05.730Z,4.65
2018-03-27T03:03:33.280Z,4.76
2018-03-27T03:06:00.847Z,4.79
2018-03-27T03:08:28.405Z,4.75
2018-03-27T03:10:56.068Z,4.79
2018-03-27T03:13:23.672Z,4.75
2018-03-27T03:15:51.298Z,4.81
2018-03-27T03:18:18.824Z,4.76
2018-03-27T03:20:46.376Z,4.69
2018-03-27T03:23:13.925Z,4.77
2018-03-27T03:25:41.983Z,4.61
2018-03-27T03:28:09.512Z,4.67
2018-03-27T03:30:37.122Z,4.75
2018-03-27T03:33:04.649Z,4.75
2018-03-27T03:35:32.220Z,4.75
2018-03-27T03:37:59.751Z,4.76
2018-03-27T03:40:27.317Z,4.44
2018-03-27T03:42:54.838Z,4.63
2018-03-27T03:45:22.438Z,4.76
2018-03-27T03:47:49.956Z,4.73
2018-03-27T03:50:17.603Z,4.77
2018-03-27T03:52:45.134Z,4.65
2018-03-27T03:55:12.727Z,4.82
2018-03-27T03:57:40.269Z,4.74
2018-03-27T04:00:07.820Z,4.87
2018-03-27T04:02:35.337Z,4.82
2018-03-27T04:05:02.868Z,4.80
2018-03-27T04:07:30.427Z,4.28
2018-03-27T04:09:57.978Z,3.64
2018-03-27T04:12:25.537Z,4.29
2018-03-27T04:14:53.073Z,4.46
2018-03-27T04:17:20.631Z,4.16
2018-03-27T04:19:48.148Z,4.44
2018-03-27T04:22:16.082Z,4.63
2018-03-27T04:24:43.660Z,4.63
2018-03-27T04:27:11.234Z,4.68
2018-03-27T04:29:38.764Z,4.64
2018-03-27T04:32:06.327Z,4.56
2018-03-27T04:34:33.874Z,4.52
2018-03-27T04:37:01.433Z,4.54
2018-03-27T04:39:28.974Z,4.69
2018-03-27T04:41:56.557Z,4.58
2018-03-27T04:44:24.082Z,4.59
2018-03-27T04:46:51.642Z,4.65
2018-03-27T04:49:19.604Z,4.63
2018-03-27T04:51:47.164Z,4.61
2018-03-27T04:54:14.691Z,4.55
2018-03-27T04:56:42.269Z,4.58
2018-03-27T04:59:09.869Z,4.60
2018-03-27T05:01:37.431Z,4.66
2018-03-27T05:04:05.020Z,4.50
2018-03-27T05:06:32.605Z,4.56
2018-03-27T05:09:00.129Z,4.64
2018-03-27T05:11:27.706Z,4.59
2018-03-27T05:13:55.231Z,4.67
2018-03-27T05:16:22.812Z,4.60
2018-03-27T05:18:50.341Z,4.59
2018-03-27T05:23:51.592Z,4.41
2018-03-27T05:26:19.694Z,4.59
2018-03-27T05:28:47.214Z,4.69
2018-03-27T05:31:14.772Z,4.70
2018-03-27T05:33:42.302Z,4.61
2018-03-27T05:36:09.893Z,4.71
2018-03-27T05:38:37.445Z,4.72
2018-03-27T05:41:05.016Z,4.65
2018-03-27T05:43:32.562Z,4.56
2018-03-27T05:46:00.084Z,4.65
2018-03-27T05:48:27.638Z,4.73
2018-03-27T05:50:55.170Z,4.72
2018-03-27T05:53:22.784Z,4.76
2018-03-27T05:55:51.279Z,4.79
2018-03-27T05:58:19.538Z,4.69
2018-03-27T06:00:47.164Z,4.65
2018-03-27T06:03:14.727Z,4.60
2018-03-27T06:05:42.245Z,4.78
2018-03-27T06:08:09.807Z,4.78
2018-03-27T06:10:37.335Z,4.74
2018-03-27T06:13:05.211Z,4.80
2018-03-27T06:15:32.743Z,4.67
2018-03-27T06:18:00.296Z,4.70
2018-03-27T06:20:27.831Z,4.54
2018-03-27T06:22:56.150Z,4.61
2018-03-27T06:25:23.701Z,4.67
2018-03-27T06:27:51.269Z,4.73
2018-03-27T06:30:18.924Z,4.68
2018-03-27T06:32:46.479Z,4.89
2018-03-27T06:35:14.256Z,4.90
2018-03-27T06:37:41.930Z,4.90
2018-03-27T06:40:09.463Z,5.03
2018-03-27T06:42:37.088Z,4.98
2018-03-27T06:45:04.819Z,4.94
2018-03-27T06:47:33.789Z,5.03
2018-03-27T06:50:01.522Z,5.01
2018-03-27T06:52:29.091Z,5.11
2018-03-27T06:54:57.339Z,5.01
2018-03-27T06:57:24.902Z,5.11
2018-03-27T06:59:52.634Z,5.11
2018-03-27T07:02:20.388Z,5.18
2018-03-27T07:04:48.184Z,5.16
2018-03-27T07:07:15.813Z,4.78
2018-03-27T07:09:43.761Z,4.56
2018-03-27T07:12:11.442Z,4.84
2018-03-27T07:14:38.970Z,4.87
2018-03-27T07:17:06.520Z,4.95
2018-03-27T07:19:34.181Z,4.99
2018-03-27T07:22:01.699Z,4.93
2018-03-27T07:24:29.395Z,5.06
2018-03-27T07:26:58.055Z,5.18
2018-03-27T07:29:25.826Z,5.20
2018-03-27T07:31:53.895Z,4.89
2018-03-27T07:34:21.482Z,5.16
2018-03-27T07:36:50.040Z,5.16
2018-03-27T07:39:17.770Z,5.32
2018-03-27T07:41:45.316Z,5.43
2018-03-27T07:44:13.843Z,5.42
2018-03-27T07:46:41.678Z,5.44
2018-03-27T07:49:09.243Z,5.47
2018-03-27T07:51:36.828Z,5.49
2018-03-27T07:54:04.398Z,5.31
2018-03-27T07:56:31.920Z,5.50
2018-03-27T07:58:59.551Z,5.63
2018-03-27T08:01:27.088Z,5.63
2018-03-27T08:03:55.110Z,5.64
2018-03-27T08:06:22.668Z,5.63
2018-03-27T08:08:50.253Z,5.71
2018-03-27T08:11:17.932Z,5.61
2018-03-27T08:13:45.567Z,5.76
2018-03-27T08:16:13.091Z,5.92
2018-03-27T08:18:40.713Z,5.95
2018-03-27T08:21:08.230Z,6.08
2018-03-27T08:23:41.952Z,6.15
2018-03-27T08:26:12.093Z,6.22
2018-03-27T08:28:40.556Z,6.32
2018-03-27T08:31:09.513Z,6.10
2018-03-27T08:33:40.591Z,5.92
2018-03-27T08:36:10.145Z,6.00
2018-03-27T08:38:40.931Z,6.21
2018-03-27T08:41:11.901Z,6.18
2018-03-27T08:43:42.811Z,6.39
2018-03-27T08:46:11.578Z,6.26
2018-03-27T08:48:41.857Z,6.46
2018-03-27T08:51:11.517Z,6.54
2018-03-27T08:53:40.734Z,6.66
2018-03-27T08:56:11.823Z,6.68
2018-03-27T08:58:41.289Z,6.83
2018-03-27T09:01:12.241Z,6.83
2018-03-27T09:03:42.376Z,6.86
2018-03-27T09:06:12.340Z,7.02
2018-03-27T09:08:41.619Z,6.86
2018-03-27T09:11:12.171Z,7.08
2018-03-27T09:13:44.149Z,7.18
2018-03-27T09:16:13.379Z,7.28
2018-03-27T09:18:42.412Z,7.33
2018-03-27T09:21:10.916Z,7.40
2018-03-27T09:23:41.100Z,7.40
2018-03-27T09:26:10.171Z,7.39
2018-03-27T09:28:40.114Z,7.61
2018-03-27T09:31:07.980Z,7.49
2018-03-27T09:33:38.182Z,7.51
2018-03-27T09:36:09.323Z,7.66
2018-03-27T09:38:39.108Z,7.80
2018-03-27T09:41:08.130Z,7.97
2018-03-27T09:43:36.028Z,8.06
2018-03-27T09:46:04.653Z,8.12
2018-03-27T09:48:35.365Z,8.00
2018-03-27T09:51:04.889Z,8.09
2018-03-27T09:53:35.201Z,8.26
2018-03-27T09:56:02.979Z,8.50
2018-03-27T09:58:38.646Z,8.62
2018-03-27T10:01:11.349Z,8.87
2018-03-27T10:03:39.650Z,8.98
2018-03-27T10:06:13.008Z,9.12
2018-03-27T10:08:44.403Z,9.43
2018-03-27T10:11:12.257Z,9.56
2018-03-27T10:13:44.946Z,9.46
2018-03-27T10:16:17.139Z,9.56
2018-03-27T10:18:44.837Z,9.59
2018-03-27T10:21:15.731Z,9.79
2018-03-27T10:23:45.470Z,9.87
2018-03-27T10:26:13.098Z,9.77
2018-03-27T10:28:42.066Z,9.92
2018-03-27T10:31:11.450Z,9.91
2018-03-27T10:33:39.347Z,9.97
2018-03-27T10:36:07.185Z,10.00
2018-03-27T10:38:36.816Z,9.94
2018-03-27T10:41:04.394Z,9.87
2018-03-27T10:43:31.935Z,9.87
2018-03-27T10:45:59.739Z,9.90
2018-03-27T10:48:27.861Z,9.73
2018-03-27T10:50:56.943Z,9.68
2018-03-27T10:53:26.206Z,9.64
2018-03-27T10:55:53.943Z,9.70
2018-03-27T10:58:21.477Z,9.63
2018-03-27T11:00:49.054Z,9.45
2018-03-27T11:03:16.702Z,9.48
2018-03-27T11:05:44.551Z,9.44
2018-03-27T11:08:12.131Z,9.28
2018-03-27T11:10:39.939Z,9.18
2018-03-27T11:13:10.524Z,9.15
2018-03-27T11:15:38.726Z,9.14
2018-03-27T11:18:07.350Z,9.26
2018-03-27T11:20:35.168Z,9.32
2018-03-27T11:23:02.812Z,9.28
2018-03-27T11:25:30.424Z,9.28
2018-03-27T11:28:00.274Z,9.30
2018-03-27T11:30:28.730Z,9.20
2018-03-27T11:32:56.413Z,9.27
2018-03-27T11:35:24.013Z,9.32
2018-03-27T11:37:53.856Z,9.19
2018-03-27T11:40:21.665Z,9.24
2018-03-27T11:42:50.443Z,9.28
2018-03-27T11:45:18.359Z,9.38
2018-03-27T11:47:47.782Z,9.29
2018-03-27T11:50:20.146Z,9.30
2018-03-27T11:52:47.849Z,9.19
2018-03-27T11:55:15.564Z,9.33
2018-03-27T11:57:43.912Z,9.58
2018-03-27T12:00:11.475Z,9.53
2018-03-27T12:02:39.129Z,9.65
2018-03-27T12:05:06.968Z,9.36
2018-03-27T12:07:34.942Z,9.42
2018-03-27T12:10:02.558Z,9.48
2018-03-27T12:12:31.845Z,9.59
2018-03-27T12:15:00.346Z,9.80
2018-03-27T12:17:28.145Z,9.81
2018-03-27T12:19:56.575Z,9.55
2018-03-27T12:22:24.176Z,9.99
2018-03-27T12:24:51.764Z,9.51
2018-03-27T12:27:19.312Z,9.67
2018-03-27T12:29:48.124Z,9.57
2018-03-27T12:32:16.583Z,9.30
2018-03-27T12:34:44.228Z,9.32
2018-03-27T12:37:11.853Z,9.48
2018-03-27T12:39:39.655Z,9.55
2018-03-27T12:42:07.220Z,9.49
2018-03-27T12:44:35.051Z,9.67
2018-03-27T12:47:05.868Z,9.77
2018-03-27T12:49:34.008Z,9.86
2018-03-27T12:52:01.820Z,9.86
2018-03-27T12:54:31.378Z,9.48
2018-03-27T12:56:58.949Z,9.56
2018-03-27T12:59:27.951Z,9.58
2018-03-27T13:01:55.512Z,9.51
2018-03-27T13:04:23.030Z,9.65
2018-03-27T13:06:53.402Z,9.41
2018-03-27T13:09:22.039Z,9.40
2018-03-27T13:11:53.125Z,9.28
2018-03-27T13:14:20.867Z,9.24
2018-03-27T13:16:49.453Z,9.36
2018-03-27T13:19:17.002Z,9.37
2018-03-27T13:21:46.985Z,9.43
2018-03-27T13:24:14.985Z,9.52
2018-03-27T13:26:45.146Z,9.41
2018-03-27T13:29:12.707Z,9.40
2018-03-27T13:31:45.689Z,9.37
2018-03-27T13:34:18.489Z,9.43
2018-03-27T13:36:47.044Z,9.35
2018-03-27T13:41:55.021Z,9.20
2018-03-27T13:44:23.071Z,9.02
2018-03-27T13:46:52.771Z,9.01
2018-03-27T13:49:21.033Z,9.03
2018-03-27T13:51:50.995Z,8.75
2018-03-27T13:54:19.178Z,8.61
2018-03-27T13:56:46.784Z,8.58
2018-03-27T13:59:14.309Z,8.48
2018-03-27T14:01:42.066Z,8.61
2018-03-27T14:04:09.595Z,8.58
2018-03-27T14:06:40.521Z,8.63
2018-03-27T14:09:11.911Z,8.60
2018-03-27T14:11:42.635Z,8.63
2018-03-27T14:14:14.065Z,8.58
2018-03-27T14:16:44.084Z,8.54
2018-03-27T14:19:13.653Z,8.54
2018-03-27T14:21:45.734Z,8.62
2018-03-27T14:24:15.163Z,8.55
2018-03-27T14:26:43.476Z,8.56
2018-03-27T14:29:13.107Z,8.48
2018-03-27T14:31:47.142Z,8.46
2018-03-27T14:34:17.325Z,8.44
2018-03-27T14:36:48.396Z,8.49
2018-03-27T14:39:17.669Z,8.45
2018-03-27T14:41:48.435Z,8.50
2018-03-27T14:44:16.353Z,8.53
2018-03-27T14:46:44.964Z,8.37
2018-03-27T14:49:14.038Z,8.41
2018-03-27T14:51:42.975Z,8.39
2018-03-27T14:54:12.693Z,8.47
2018-03-27T14:56:43.675Z,8.41
2018-03-27T14:59:12.327Z,8.37
2018-03-27T15:01:41.206Z,8.29
2018-03-27T15:04:10.653Z,8.13
2018-03-27T15:06:41.365Z,8.06
2018-03-27T15:09:09.754Z,8.04
2018-03-27T15:11:39.782Z,8.14
2018-03-27T15:14:10.862Z,8.08
2018-03-27T15:16:38.600Z,8.11
2018-03-27T15:19:06.165Z,8.21
2018-03-27T15:21:35.284Z,8.05
2018-03-27T15:24:03.468Z,8.04
2018-03-27T15:26:32.266Z,7.96
2018-03-27T15:29:00.944Z,7.92
2018-03-27T15:31:30.202Z,7.95
2018-03-27T15:34:01.147Z,7.99
2018-03-27T15:36:30.059Z,8.09
2018-03-27T15:39:02.709Z,8.13
2018-03-27T15:41:32.592Z,7.88
2018-03-27T15:44:02.811Z,7.99
2018-03-27T15:46:32.660Z,7.95
2018-03-27T15:49:02.123Z,7.98
2018-03-27T15:51:33.382Z,7.90
2018-03-27T15:54:05.164Z,7.93
2018-03-27T15:56:35.543Z,7.85
2018-03-27T15:59:05.548Z,7.89
2018-03-27T16:01:38.995Z,7.75
2018-03-27T16:04:09.802Z,7.85
2018-03-27T16:06:42.604Z,7.86
2018-03-27T16:09:12.587Z,7.81
2018-03-27T16:11:40.860Z,7.78
2018-03-27T16:14:08.714Z,7.76
2018-03-27T16:16:43.298Z,7.71
2018-03-27T16:21:53.516Z,7.71
2018-03-27T16:24:21.489Z,7.74
2018-03-27T16:26:49.928Z,7.74
2018-03-27T16:29:19.632Z,7.73
2018-03-27T16:31:48.925Z,7.67
2018-03-27T16:34:21.826Z,7.70
2018-03-27T16:36:52.386Z,7.57
2018-03-27T16:39:27.529Z,7.70
2018-03-27T16:41:56.966Z,7.67
2018-03-27T16:44:28.531Z,7.54
2018-03-27T16:46:57.917Z,7.53
2018-03-27T16:49:26.082Z,7.77
2018-03-27T16:51:58.337Z,7.68
2018-03-27T16:54:28.042Z,7.71
2018-03-27T16:56:55.654Z,7.39
2018-03-27T16:59:23.539Z,7.39
2018-03-27T17:01:51.111Z,7.51
2018-03-27T17:04:18.865Z,7.51
2018-03-27T17:06:46.438Z,7.26
2018-03-27T17:09:17.528Z,7.38
2018-03-27T17:11:45.411Z,7.31
2018-03-27T17:14:13.447Z,7.22
2018-03-27T17:16:41.508Z,7.23
2018-03-27T17:19:12.374Z,7.27
2018-03-27T17:21:40.126Z,7.19
2018-03-27T17:24:09.907Z,7.16
2018-03-27T17:26:37.838Z,7.09
2018-03-27T17:29:06.228Z,7.18
2018-03-27T17:31:33.763Z,7.19
2018-03-27T17:34:02.481Z,6.96
2018-03-27T17:36:31.342Z,7.00
2018-03-27T17:38:59.514Z,7.01
2018-03-27T17:41:27.071Z,6.89
2018-03-27T17:43:54.872Z,7.00
2018-03-27T17:46:22.848Z,6.88
2018-03-27T17:48:50.619Z,6.92
2018-03-27T17:51:18.415Z,6.92
2018-03-27T17:53:46.588Z,6.80
2018-03-27T17:56:14.614Z,6.90
2018-03-27T17:58:42.160Z,7.02
2018-03-27T18:01:09.683Z,6.79
2018-03-27T18:03:39.493Z,6.89
2018-03-27T18:06:08.109Z,6.84
2018-03-27T18:08:35.842Z,6.68
2018-03-27T18:11:06.221Z,6.74
2018-03-27T18:13:40.581Z,6.61
2018-03-27T18:16:10.619Z,6.69
2018-03-27T18:18:41.740Z,6.70
2018-03-27T18:21:10.070Z,6.74
2018-03-27T18:23:37.667Z,6.72
2018-03-27T18:26:05.726Z,6.66
2018-03-27T18:28:33.267Z,6.53
2018-03-27T18:31:00.870Z,6.56
2018-03-27T18:33:28.359Z,6.54
2018-03-27T18:35:55.921Z,6.63
2018-03-27T18:38:23.472Z,6.61
2018-03-27T18:40:51.032Z,6.50
2018-03-27T18:43:18.569Z,6.45
2018-03-27T18:45:46.187Z,6.47
2018-03-27T18:48:13.733Z,6.55
2018-03-27T18:50:41.302Z,6.66
2018-03-27T18:53:08.864Z,6.80
2018-03-27T18:55:36.577Z,6.91
2018-03-27T18:58:04.140Z,6.84
2018-03-27T19:00:32.140Z,7.02
2018-03-27T19:02:59.768Z,6.96
2018-03-27T19:05:27.333Z,6.78
2018-03-27T19:07:54.854Z,6.86
2018-03-27T19:10:22.461Z,7.08
2018-03-27T19:12:49.967Z,6.96
2018-03-27T19:15:17.519Z,7.01
2018-03-27T19:17:45.048Z,7.18
2018-03-27T19:20:12.632Z,7.30
2018-03-27T19:22:40.166Z,7.28
2018-03-27T19:25:07.714Z,7.34
2018-03-27T19:27:35.291Z,7.32
2018-03-27T19:30:02.877Z,7.24
2018-03-27T19:32:30.420Z,7.22
2018-03-27T19:34:57.980Z,7.33
2018-03-27T19:37:25.497Z,7.30
2018-03-27T19:39:53.064Z,7.37
2018-03-27T19:42:20.604Z,7.37
2018-03-27T19:44:48.157Z,7.27
2018-03-27T19:47:15.686Z,7.34
2018-03-27T19:49:43.237Z,7.26
2018-03-27T19:52:10.808Z,7.19
2018-03-27T19:54:38.344Z,7.20
2018-03-27T19:57:05.980Z,7.15
2018-03-27T19:59:33.504Z,7.10
2018-03-27T20:02:01.068Z,7.15
2018-03-27T20:04:28.622Z,7.22
2018-03-27T20:06:56.203Z,7.28
2018-03-27T20:09:23.727Z,7.22
2018-03-27T20:11:51.572Z,7.18
2018-03-27T20:14:19.110Z,7.27
2018-03-27T20:16:47.296Z,7.18
2018-03-27T20:19:14.843Z,7.35
2018-03-27T20:21:42.417Z,7.44
2018-03-27T20:24:09.930Z,7.27
2018-03-27T20:26:37.490Z,7.39
2018-03-27T20:29:05.024Z,7.53
2018-03-27T20:31:32.595Z,7.51
2018-03-27T20:34:00.128Z,7.48
2018-03-27T20:36:27.688Z,7.47
2018-03-27T20:38:55.211Z,7.50
2018-03-27T20:41:22.843Z,7.43
2018-03-27T20:43:50.637Z,7.38
2018-03-27T20:46:18.181Z,7.39
2018-03-27T20:48:45.718Z,7.48
2018-03-27T20:51:13.273Z,7.40
2018-03-27T20:53:40.797Z,7.41
2018-03-27T20:56:08.353Z,7.38
2018-03-27T20:58:37.951Z,7.38
2018-03-27T21:01:06.053Z,7.25
2018-03-27T21:03:33.620Z,7.27
2018-03-27T21:06:01.208Z,7.28
2018-03-27T21:08:28.724Z,7.26
2018-03-27T21:10:56.275Z,7.29
2018-03-27T21:13:23.811Z,7.46
2018-03-27T21:15:51.368Z,7.43
2018-03-27T21:18:18.892Z,7.51
2018-03-27T21:20:46.421Z,7.42
2018-03-27T21:23:13.979Z,7.48
2018-03-27T21:25:41.500Z,7.59
2018-03-27T21:28:09.067Z,7.44
2018-03-27T21:30:36.619Z,7.44
2018-03-27T21:33:04.186Z,7.35
2018-03-27T21:35:31.884Z,7.36
2018-03-27T21:37:59.483Z,7.47
2018-03-27T21:40:27.012Z,7.34
2018-03-27T21:42:54.586Z,7.53
2018-03-27T21:45:22.127Z,7.39
2018-03-27T21:47:50.047Z,7.44
2018-03-27T21:50:17.598Z,7.49
2018-03-27T21:52:45.152Z,7.38
2018-03-27T21:55:13.215Z,7.59
2018-03-27T21:57:40.848Z,7.51
2018-03-27T22:00:08.477Z,7.56
2018-03-27T22:02:36.104Z,7.56
2018-03-27T22:05:03.926Z,7.61
2018-03-27T22:07:32.216Z,7.77
2018-03-27T22:10:00.168Z,7.94
2018-03-27T22:12:28.034Z,7.92
2018-03-27T22:14:55.780Z,7.83
2018-03-27T22:17:23.345Z,7.76
2018-03-27T22:19:51.078Z,7.70
2018-03-27T22:22:18.807Z,7.82
2018-03-27T22:24:46.481Z,7.83
2018-03-27T22:27:14.080Z,7.75
2018-03-27T22:29:41.613Z,7.81
2018-03-27T22:32:09.175Z,7.81
2018-03-27T22:34:36.709Z,7.87
2018-03-27T22:37:04.285Z,7.99
2018-03-27T22:39:31.840Z,7.99
2018-03-27T22:41:59.371Z,7.98
2018-03-27T22:44:26.969Z,8.02
2018-03-27T22:46:54.512Z,8.05
2018-03-27T22:49:22.191Z,7.96
2018-03-27T22:51:49.811Z,8.08
2018-03-27T22:54:17.556Z,8.05
2018-03-27T22:56:45.084Z,8.09
2018-03-27T22:59:13.014Z,8.07
2018-03-27T23:01:41.010Z,8.07
2018-03-27T23:04:10.414Z,8.16
2018-03-27T23:06:37.971Z,8.12
2018-03-27T23:09:05.570Z,8.12
2018-03-27T23:11:35.817Z,8.13
2018-03-27T23:14:03.922Z,8.17
2018-03-27T23:16:32.194Z,8.17
2018-03-27T23:18:59.983Z,8.13
2018-03-27T23:21:27.557Z,8.18
2018-03-27T23:23:55.513Z,8.18
2018-03-27T23:26:23.112Z,8.19
2018-03-27T23:28:50.703Z,8.18
2018-03-27T23:31:18.933Z,8.21
2018-03-27T23:33:46.522Z,8.21
2018-03-27T23:36:14.476Z,8.20
2018-03-27T23:38:42.074Z,8.22
2018-03-27T23:41:09.593Z,8.31
2018-03-27T23:43:37.180Z,8.32
2018-03-27T23:46:06.238Z,8.24
2018-03-27T23:48:34.051Z,8.29
2018-03-27T23:51:01.615Z,8.44
2018-03-27T23:53:29.240Z,8.47
2018-03-27T23:55:56.764Z,8.50
2018-03-27T23:58:24.473Z,8.60
